createdAt,value
2022-11-03T00:01:26.893Z,100.00
2022-11-03T00:03:00.301Z,100.00
2022-11-03T00:04:38.800Z,100.00
2022-11-03T00:06:10.975Z,100.00
2022-11-03T00:07:44.189Z,100.00
2022-11-03T00:09:19.219Z,100.00
2022-11-03T00:10:51.450Z,100.00
2022-11-03T00:12:24.725Z,100.00
2022-11-03T00:13:58.182Z,100.00
2022-11-03T00:15:30.275Z,100.00
2022-11-03T00:17:03.603Z,100.00
2022-11-03T00:18:36.956Z,100.00
2022-11-03T00:20:12.920Z,100.00
2022-11-03T00:21:46.672Z,100.00
2022-11-03T00:23:19.916Z,100.00
2022-11-03T00:24:53.143Z,100.00
2022-11-03T00:26:27.675Z,100.00
2022-11-03T00:28:00.851Z,100.00
2022-11-03T00:29:34.112Z,100.00
2022-11-03T00:31:10.572Z,100.00
2022-11-03T00:32:43.924Z,100.00
2022-11-03T00:34:17.152Z,100.00
2022-11-03T00:35:51.859Z,100.00
2022-11-03T00:37:25.032Z,100.00
2022-11-03T00:38:57.790Z,100.00
2022-11-03T00:40:31.257Z,100.00
2022-11-03T00:42:04.823Z,100.00
2022-11-03T00:43:38.307Z,100.00
2022-11-03T00:45:11.805Z,100.00
2022-11-03T00:46:45.612Z,100.00
2022-11-03T00:48:30.740Z,100.00
2022-11-03T00:50:03.966Z,100.00
2022-11-03T00:51:38.471Z,100.00
2022-11-03T00:53:10.656Z,100.00
2022-11-03T00:54:45.554Z,100.00
2022-11-03T00:56:21.088Z,100.00
2022-11-03T00:57:53.488Z,100.00
2022-11-03T00:59:26.734Z,100.00
2022-11-03T01:01:03.140Z,100.00
2022-11-03T01:02:36.375Z,100.00
2022-11-03T01:04:28.026Z,100.00
2022-11-03T01:06:18.834Z,100.00
2022-11-03T01:07:54.639Z,100.00
2022-11-03T01:09:29.698Z,100.00
2022-11-03T01:11:26.781Z,100.00
2022-11-03T01:12:59.951Z,100.00
2022-11-03T01:14:35.350Z,100.00
2022-11-03T01:16:07.973Z,100.00
2022-11-03T01:17:41.976Z,100.00
2022-11-03T01:19:14.156Z,100.00
2022-11-03T01:20:47.307Z,100.00
2022-11-03T01:22:21.360Z,100.00
2022-11-03T01:23:55.874Z,100.00
2022-11-03T01:25:29.084Z,100.00
2022-11-03T01:27:02.424Z,100.00
2022-11-03T01:28:34.736Z,100.00
2022-11-03T01:30:08.917Z,100.00
2022-11-03T01:31:41.035Z,100.00
2022-11-03T01:33:15.352Z,100.00
2022-11-03T01:34:48.869Z,100.00
2022-11-03T01:36:22.453Z,100.00
2022-11-03T01:37:56.607Z,100.00
2022-11-03T01:39:31.106Z,100.00
2022-11-03T01:41:07.249Z,100.00
2022-11-03T01:42:40.495Z,100.00
2022-11-03T01:44:35.676Z,100.00
2022-11-03T01:46:15.469Z,100.00
2022-11-03T01:47:49.040Z,100.00
2022-11-03T01:49:26.071Z,100.00
2022-11-03T01:50:59.322Z,100.00
2022-11-03T01:52:36.907Z,100.00
2022-11-03T01:54:12.874Z,100.00
2022-11-03T01:55:49.568Z,100.00
2022-11-03T01:57:27.171Z,100.00
2022-11-03T01:59:00.681Z,100.00
2022-11-03T02:00:34.211Z,100.00
2022-11-03T02:02:08.340Z,100.00
2022-11-03T02:03:45.074Z,100.00
2022-11-03T02:05:20.912Z,100.00
2022-11-03T02:07:03.004Z,100.00
2022-11-03T02:08:39.479Z,100.00
2022-11-03T02:10:12.867Z,100.00
2022-11-03T02:12:05.680Z,100.00
2022-11-03T02:13:38.960Z,100.00
2022-11-03T02:15:14.812Z,100.00
2022-11-03T02:16:52.778Z,100.00
2022-11-03T02:18:33.803Z,100.00
2022-11-03T02:20:11.311Z,100.00
2022-11-03T02:21:54.741Z,100.00
2022-11-03T02:23:34.439Z,100.00
2022-11-03T02:25:17.158Z,100.00
2022-11-03T02:26:56.643Z,100.00
2022-11-03T02:28:32.176Z,100.00
2022-11-03T02:30:05.238Z,100.00
2022-11-03T02:31:43.721Z,100.00
2022-11-03T02:33:27.452Z,100.00
2022-11-03T02:35:07.105Z,100.00
2022-11-03T02:36:47.433Z,100.00
2022-11-03T02:38:23.512Z,100.00
2022-11-03T02:40:01.395Z,100.00
2022-11-03T02:41:38.255Z,100.00
2022-11-03T02:43:15.917Z,100.00
2022-11-03T02:44:50.412Z,100.00
2022-11-03T02:46:26.947Z,100.00
2022-11-03T02:48:02.904Z,100.00
2022-11-03T02:49:39.047Z,100.00
2022-11-03T02:51:12.556Z,100.00
2022-11-03T02:52:47.641Z,100.00
2022-11-03T02:54:24.762Z,100.00
2022-11-03T02:56:03.679Z,100.00
2022-11-03T02:57:39.894Z,100.00
2022-11-03T02:59:19.315Z,100.00
2022-11-03T03:00:57.312Z,100.00
2022-11-03T03:02:36.207Z,100.00
2022-11-03T03:04:10.916Z,100.00
2022-11-03T03:05:46.577Z,100.00
2022-11-03T03:07:26.309Z,100.00
2022-11-03T03:09:04.646Z,100.00
2022-11-03T03:10:42.713Z,100.00
2022-11-03T03:12:18.619Z,100.00
2022-11-03T03:13:51.761Z,100.00
2022-11-03T03:15:32.996Z,100.00
2022-11-03T03:17:10.265Z,100.00
2022-11-03T03:18:50.094Z,100.00
2022-11-03T03:20:29.690Z,100.00
2022-11-03T03:22:09.956Z,100.00
2022-11-03T03:23:49.841Z,100.00
2022-11-03T03:25:27.974Z,100.00
2022-11-03T03:27:05.098Z,100.00
2022-11-03T03:28:43.947Z,100.00
2022-11-03T03:30:18.578Z,100.00
2022-11-03T03:31:57.258Z,100.00
2022-11-03T03:33:31.760Z,100.00
2022-11-03T03:35:08.777Z,100.00
2022-11-03T03:36:45.877Z,100.00
2022-11-03T03:38:25.301Z,100.00
2022-11-03T03:40:02.159Z,100.00
2022-11-03T03:41:37.303Z,100.00
2022-11-03T03:43:13.680Z,100.00
2022-11-03T03:44:48.305Z,100.00
2022-11-03T03:46:24.294Z,100.00
2022-11-03T03:47:59.361Z,100.00
2022-11-03T03:49:33.821Z,100.00
2022-11-03T03:51:08.618Z,100.00
2022-11-03T03:52:41.071Z,100.00
2022-11-03T03:54:14.320Z,100.00
2022-11-03T03:55:50.853Z,100.00
2022-11-03T03:57:27.000Z,100.00
2022-11-03T03:59:00.300Z,100.00
2022-11-03T04:00:33.761Z,100.00
2022-11-03T04:02:07.597Z,100.00
2022-11-03T04:03:41.279Z,100.00
2022-11-03T04:05:14.589Z,100.00
2022-11-03T04:06:46.798Z,100.00
2022-11-03T04:08:20.917Z,100.00
2022-11-03T04:09:54.252Z,100.00
2022-11-03T04:11:44.780Z,100.00
2022-11-03T04:13:35.127Z,100.00
2022-11-03T04:15:27.838Z,100.00
2022-11-03T04:17:17.845Z,100.00
2022-11-03T04:19:10.034Z,100.00
2022-11-03T04:21:00.826Z,100.00
2022-11-03T04:22:35.218Z,100.00
2022-11-03T04:24:08.542Z,100.00
2022-11-03T04:25:41.815Z,100.00
2022-11-03T04:27:29.760Z,100.00
2022-11-03T04:29:03.339Z,100.00
2022-11-03T04:30:35.539Z,100.00
2022-11-03T04:32:15.419Z,100.00
2022-11-03T04:33:49.589Z,100.00
2022-11-03T04:35:26.779Z,100.00
2022-11-03T04:37:00.264Z,100.00
2022-11-03T04:38:33.464Z,100.00
2022-11-03T04:40:15.586Z,100.00
2022-11-03T04:41:48.813Z,100.00
2022-11-03T04:43:23.343Z,100.00
2022-11-03T04:44:56.679Z,100.00
2022-11-03T04:46:31.031Z,100.00
2022-11-03T04:48:12.868Z,100.00
2022-11-03T04:49:48.062Z,100.00
2022-11-03T04:51:26.376Z,100.00
2022-11-03T04:53:00.220Z,100.00
2022-11-03T04:54:33.542Z,100.00
2022-11-03T04:56:15.855Z,100.00
2022-11-03T04:57:51.817Z,100.00
2022-11-03T04:59:25.019Z,100.00
2022-11-03T05:01:00.000Z,100.00
2022-11-03T05:02:33.271Z,100.00
2022-11-03T05:04:12.851Z,100.00
2022-11-03T05:05:45.080Z,100.00
2022-11-03T05:07:27.312Z,100.00
2022-11-03T05:09:04.129Z,100.00
2022-11-03T05:10:37.350Z,100.00
2022-11-03T05:12:10.348Z,100.00
2022-11-03T05:13:43.753Z,100.00
2022-11-03T05:15:32.820Z,100.00
2022-11-03T05:17:19.143Z,100.00
2022-11-03T05:18:52.573Z,100.00
2022-11-03T05:20:35.702Z,100.00
2022-11-03T05:22:17.304Z,100.00
2022-11-03T05:23:53.821Z,100.00
2022-11-03T05:25:41.585Z,100.00
2022-11-03T05:27:20.581Z,100.00
2022-11-03T05:28:59.763Z,100.00
2022-11-03T05:30:32.959Z,100.00
2022-11-03T05:32:13.368Z,100.00
2022-11-03T05:33:49.806Z,100.00
2022-11-03T05:35:24.585Z,100.00
2022-11-03T05:36:59.661Z,100.00
2022-11-03T05:38:34.434Z,100.00
2022-11-03T05:40:21.953Z,100.00
2022-11-03T05:41:55.838Z,100.00
2022-11-03T05:43:29.933Z,100.00
2022-11-03T05:45:09.328Z,100.00
2022-11-03T05:46:42.795Z,100.00
2022-11-03T05:48:31.743Z,100.00
2022-11-03T05:50:15.540Z,100.00
2022-11-03T05:51:49.082Z,100.00
2022-11-03T05:53:30.413Z,100.00
2022-11-03T05:55:04.583Z,100.00
2022-11-03T05:56:39.371Z,100.00
2022-11-03T05:58:25.234Z,100.00
2022-11-03T05:59:59.477Z,100.00
2022-11-03T06:01:35.599Z,100.00
2022-11-03T06:03:11.016Z,100.00
2022-11-03T06:04:44.295Z,100.00
2022-11-03T06:06:22.176Z,100.00
2022-11-03T06:07:56.394Z,100.00
2022-11-03T06:09:32.720Z,100.00
2022-11-03T06:11:06.981Z,100.00
2022-11-03T06:12:41.544Z,100.00
2022-11-03T06:14:21.301Z,100.00
2022-11-03T06:16:00.476Z,100.00
2022-11-03T06:17:33.773Z,100.00
2022-11-03T06:19:30.098Z,100.00
2022-11-03T06:21:08.550Z,100.00
2022-11-03T06:22:41.796Z,100.00
2022-11-03T06:24:15.934Z,100.00
2022-11-03T06:25:50.135Z,100.00
2022-11-03T06:27:25.382Z,100.00
2022-11-03T06:29:01.589Z,100.00
2022-11-03T06:30:37.240Z,100.00
2022-11-03T06:32:13.788Z,100.00
2022-11-03T06:33:47.107Z,100.00
2022-11-03T06:35:20.600Z,100.00
2022-11-03T06:36:53.917Z,100.00
2022-11-03T06:38:30.153Z,100.00
2022-11-03T06:40:24.801Z,100.00
2022-11-03T06:41:58.128Z,100.00
2022-11-03T06:43:39.184Z,100.00
2022-11-03T06:45:20.034Z,100.00
2022-11-03T06:46:55.595Z,100.00
2022-11-03T06:48:30.575Z,100.00
2022-11-03T06:50:09.736Z,100.00
2022-11-03T06:51:42.873Z,100.00
2022-11-03T06:53:22.800Z,100.00
2022-11-03T06:55:01.940Z,100.00
2022-11-03T06:56:38.327Z,100.00
2022-11-03T06:58:18.662Z,100.00
2022-11-03T07:00:06.580Z,100.00
2022-11-03T07:01:51.674Z,100.00
2022-11-03T07:03:30.198Z,100.00
2022-11-03T07:05:03.401Z,100.00
2022-11-03T07:06:37.875Z,100.00
2022-11-03T07:08:24.533Z,100.00
2022-11-03T07:09:57.689Z,100.00
2022-11-03T07:11:33.240Z,100.00
2022-11-03T07:13:15.620Z,100.00
2022-11-03T07:14:48.989Z,100.00
2022-11-03T07:16:31.040Z,100.00
2022-11-03T07:18:14.458Z,100.00
2022-11-03T07:19:47.883Z,100.00
2022-11-03T07:21:34.834Z,100.00
2022-11-03T07:23:14.275Z,100.00
2022-11-03T07:24:48.845Z,100.00
2022-11-03T07:26:22.072Z,100.00
2022-11-03T07:27:57.910Z,100.00
2022-11-03T07:29:32.485Z,100.00
2022-11-03T07:31:16.484Z,100.00
2022-11-03T07:32:52.939Z,100.00
2022-11-03T07:34:32.767Z,100.00
2022-11-03T07:36:16.206Z,100.00
2022-11-03T07:37:53.545Z,100.00
2022-11-03T07:39:36.185Z,100.00
2022-11-03T07:41:14.803Z,100.00
2022-11-03T07:42:48.018Z,100.00
2022-11-03T07:44:22.824Z,100.00
2022-11-03T07:45:58.631Z,100.00
2022-11-03T07:47:31.862Z,100.00
2022-11-03T07:49:08.729Z,100.00
2022-11-03T07:50:44.167Z,100.00
2022-11-03T07:52:21.210Z,100.00
2022-11-03T07:53:57.011Z,100.00
2022-11-03T07:55:30.274Z,100.00
2022-11-03T07:57:12.433Z,100.00
2022-11-03T07:58:46.100Z,100.00
2022-11-03T08:00:22.687Z,100.00
2022-11-03T08:01:58.733Z,100.00
2022-11-03T08:03:45.139Z,100.00
2022-11-03T08:06:57.893Z,100.00
2022-11-03T08:08:31.064Z,100.00
2022-11-03T08:10:05.171Z,100.00
2022-11-03T08:11:38.410Z,100.00
2022-11-03T08:13:11.644Z,100.00
2022-11-03T08:14:44.848Z,100.00
2022-11-03T08:16:18.438Z,100.00
2022-11-03T08:17:55.996Z,100.00
2022-11-03T08:19:30.131Z,100.00
2022-11-03T08:21:03.318Z,100.00
2022-11-03T08:22:38.182Z,100.00
2022-11-03T08:24:11.471Z,100.00
2022-11-03T08:25:44.987Z,100.00
2022-11-03T08:27:19.431Z,100.00
2022-11-03T08:28:53.387Z,100.00
2022-11-03T08:30:26.533Z,100.00
2022-11-03T08:31:59.857Z,100.00
2022-11-03T08:33:33.629Z,100.00
2022-11-03T08:35:07.673Z,100.00
2022-11-03T08:36:40.818Z,100.00
2022-11-03T08:38:15.363Z,100.00
2022-11-03T08:39:48.571Z,100.00
2022-11-03T08:41:22.003Z,100.00
2022-11-03T08:42:55.179Z,100.00
2022-11-03T08:44:28.347Z,99.51
2022-11-03T08:46:08.196Z,98.85
2022-11-03T08:47:46.564Z,97.44
2022-11-03T08:49:19.803Z,96.55
2022-11-03T08:50:54.276Z,96.08
2022-11-03T08:52:27.748Z,95.57
2022-11-03T08:54:02.428Z,94.70
2022-11-03T08:55:35.637Z,94.74
2022-11-03T08:57:08.973Z,94.84
2022-11-03T08:58:42.093Z,95.60
2022-11-03T09:00:17.736Z,98.62
2022-11-03T09:01:51.184Z,97.35
2022-11-03T09:03:24.432Z,95.75
2022-11-03T09:04:57.610Z,93.84
2022-11-03T09:06:30.853Z,92.77
2022-11-03T09:11:51.876Z,87.96
2022-11-03T09:13:25.196Z,86.65
2022-11-03T09:14:58.311Z,85.19
2022-11-03T09:16:31.488Z,83.30
2022-11-03T09:18:05.396Z,81.35
2022-11-03T09:19:38.946Z,81.21
2022-11-03T09:21:12.087Z,82.81
2022-11-03T09:22:45.333Z,84.44
2022-11-03T09:24:18.653Z,85.64
2022-11-03T09:25:53.222Z,87.70
2022-11-03T09:27:26.427Z,88.78
2022-11-03T09:28:59.583Z,89.30
2022-11-03T09:30:32.825Z,89.68
2022-11-03T09:32:06.538Z,90.39
2022-11-03T09:33:39.642Z,90.78
2022-11-03T09:35:14.553Z,91.19
2022-11-03T09:36:52.952Z,91.25
2022-11-03T09:38:26.412Z,91.55
2022-11-03T09:39:59.808Z,92.41
2022-11-03T09:41:55.980Z,93.19
2022-11-03T09:43:29.023Z,94.08
2022-11-03T09:45:04.810Z,95.44
2022-11-03T09:46:37.965Z,95.81
2022-11-03T09:48:11.854Z,96.00
2022-11-03T09:49:45.358Z,96.37
2022-11-03T09:51:22.182Z,98.19
2022-11-03T09:52:55.534Z,97.43
2022-11-03T09:54:29.873Z,98.03
2022-11-03T09:56:03.275Z,97.53
2022-11-03T09:57:38.083Z,99.08
2022-11-03T09:59:22.053Z,99.50
2022-11-03T10:00:55.358Z,98.20
2022-11-03T10:02:31.515Z,97.91
2022-11-03T10:04:05.546Z,97.87
2022-11-03T10:05:40.123Z,97.56
2022-11-03T10:07:13.320Z,97.42
2022-11-03T10:08:48.513Z,97.01
2022-11-03T10:10:23.440Z,98.44
2022-11-03T10:11:57.239Z,98.72
2022-11-03T10:13:35.824Z,98.84
2022-11-03T10:15:15.936Z,98.08
2022-11-03T10:16:53.660Z,98.48
2022-11-03T10:18:28.916Z,98.23
2022-11-03T10:20:03.817Z,98.32
2022-11-03T10:21:38.128Z,98.57
2022-11-03T10:23:11.363Z,98.37
2022-11-03T10:24:44.521Z,98.25
2022-11-03T10:26:19.722Z,97.56
2022-11-03T10:27:53.055Z,97.76
2022-11-03T10:29:28.990Z,97.04
2022-11-03T10:31:14.273Z,97.05
2022-11-03T10:32:47.619Z,97.47
2022-11-03T10:34:36.524Z,97.42
2022-11-03T10:36:25.354Z,96.26
2022-11-03T10:38:01.803Z,96.46
2022-11-03T10:39:35.194Z,96.29
2022-11-03T10:41:13.133Z,97.18
2022-11-03T10:43:00.043Z,97.78
2022-11-03T10:44:34.778Z,96.77
2022-11-03T10:48:12.526Z,97.30
2022-11-03T10:49:45.746Z,97.89
2022-11-03T10:51:19.194Z,97.71
2022-11-03T10:52:53.179Z,97.91
2022-11-03T10:54:26.839Z,98.09
2022-11-03T10:56:00.052Z,97.51
2022-11-03T10:57:33.585Z,97.46
2022-11-03T10:59:06.976Z,97.45
2022-11-03T11:00:43.668Z,97.13
2022-11-03T11:02:20.836Z,96.57
2022-11-03T11:03:55.403Z,96.51
2022-11-03T11:05:28.713Z,95.59
2022-11-03T11:07:01.983Z,95.84
2022-11-03T11:08:35.289Z,95.59
2022-11-03T11:10:13.523Z,95.42
2022-11-03T11:12:00.818Z,94.50
2022-11-03T11:13:33.998Z,95.00
2022-11-03T11:15:38.833Z,93.59
2022-11-03T11:17:57.033Z,94.72
2022-11-03T11:19:52.558Z,95.10
2022-11-03T11:22:11.164Z,95.47
2022-11-03T11:23:46.192Z,95.86
2022-11-03T11:25:20.053Z,95.52
2022-11-03T11:26:53.276Z,95.66
2022-11-03T11:28:26.528Z,95.87
2022-11-03T11:30:01.821Z,95.96
2022-11-03T11:31:35.691Z,95.71
2022-11-03T11:33:15.735Z,95.68
2022-11-03T11:34:50.508Z,94.99
2022-11-03T11:36:26.256Z,94.57
2022-11-03T11:38:37.999Z,94.69
2022-11-03T11:40:14.686Z,95.00
2022-11-03T11:42:11.970Z,94.13
2022-11-03T11:43:45.298Z,93.99
2022-11-03T11:45:56.843Z,93.97
2022-11-03T11:47:33.062Z,94.74
2022-11-03T11:49:19.118Z,94.70
2022-11-03T11:50:53.885Z,94.91
2022-11-03T11:52:26.506Z,94.89
2022-11-03T11:54:17.196Z,94.99
2022-11-03T11:55:55.081Z,95.36
2022-11-03T11:57:34.159Z,95.36
2022-11-03T11:59:07.482Z,95.23
2022-11-03T12:00:52.603Z,95.64
2022-11-03T12:02:31.160Z,95.64
2022-11-03T12:04:08.509Z,96.14
2022-11-03T12:05:41.921Z,96.15
2022-11-03T12:07:16.501Z,96.13
2022-11-03T12:08:49.778Z,96.02
2022-11-03T12:10:26.200Z,96.02
2022-11-03T12:12:07.072Z,96.13
2022-11-03T12:13:51.447Z,96.57
2022-11-03T12:15:50.446Z,96.90
2022-11-03T12:17:34.114Z,97.56
2022-11-03T12:19:35.728Z,98.75
2022-11-03T12:21:10.378Z,97.97
2022-11-03T12:22:44.943Z,98.53
2022-11-03T12:24:36.301Z,100.00
2022-11-03T12:26:40.271Z,99.57
2022-11-03T12:28:31.854Z,99.62
2022-11-03T12:30:08.736Z,98.75
2022-11-03T12:31:42.243Z,98.78
2022-11-03T12:33:15.448Z,97.84
2022-11-03T12:34:48.693Z,97.40
2022-11-03T12:36:22.069Z,97.49
2022-11-03T12:37:56.717Z,97.67
2022-11-03T12:39:29.900Z,97.33
2022-11-03T12:41:21.267Z,97.17
2022-11-03T12:42:54.528Z,97.10
2022-11-03T12:44:28.249Z,97.02
2022-11-03T12:46:01.504Z,96.79
2022-11-03T12:47:34.795Z,97.58
2022-11-03T12:49:08.461Z,97.86
2022-11-03T12:50:42.228Z,97.77
2022-11-03T12:52:15.822Z,97.88
2022-11-03T12:53:50.871Z,97.69
2022-11-03T12:55:24.077Z,97.71
2022-11-03T12:56:57.438Z,97.27
2022-11-03T12:58:30.701Z,97.07
2022-11-03T13:00:06.291Z,96.78
2022-11-03T13:01:39.654Z,96.80
2022-11-03T13:03:13.014Z,96.85
2022-11-03T13:04:46.196Z,97.16
2022-11-03T13:06:19.334Z,97.55
2022-11-03T13:07:52.591Z,97.26
2022-11-03T13:09:27.320Z,96.97
2022-11-03T13:11:00.813Z,96.88
2022-11-03T13:12:33.070Z,96.78
2022-11-03T13:14:06.338Z,96.54
2022-11-03T13:15:39.784Z,96.03
2022-11-03T13:17:13.322Z,95.70
2022-11-03T13:18:46.465Z,95.55
2022-11-03T13:20:19.699Z,94.56
2022-11-03T13:21:53.169Z,93.87
2022-11-03T13:23:26.294Z,94.11
2022-11-03T13:25:00.955Z,93.92
2022-11-03T13:26:34.123Z,94.36
2022-11-03T13:28:07.878Z,94.76
2022-11-03T13:29:41.224Z,94.66
2022-11-03T13:31:14.459Z,94.64
2022-11-03T13:32:47.857Z,94.52
2022-11-03T13:34:21.148Z,94.63
2022-11-03T13:35:54.410Z,94.66
2022-11-03T13:37:27.609Z,94.87
2022-11-03T13:39:00.923Z,95.07
2022-11-03T13:40:55.681Z,95.39
2022-11-03T13:42:29.166Z,95.71
2022-11-03T13:44:02.707Z,96.25
2022-11-03T13:45:35.944Z,96.62
2022-11-03T13:47:11.691Z,97.07
2022-11-03T13:49:43.869Z,96.96
2022-11-03T13:50:38.799Z,96.10
2022-11-03T13:52:12.035Z,96.31
2022-11-03T14:01:00.872Z,96.07
2022-11-03T14:04:44.014Z,96.58
2022-11-03T14:06:17.948Z,96.86
2022-11-03T14:07:51.214Z,97.06
2022-11-03T14:09:24.858Z,97.27
2022-11-03T14:10:59.496Z,97.20
2022-11-03T14:12:31.912Z,97.32
2022-11-03T14:14:05.207Z,97.91
2022-11-03T14:15:38.397Z,97.88
2022-11-03T14:17:12.404Z,98.34
2022-11-03T14:18:45.900Z,98.52
2022-11-03T14:20:19.180Z,98.58
2022-11-03T14:21:52.397Z,98.81
2022-11-03T14:23:25.605Z,99.11
2022-11-03T14:24:59.162Z,99.45
2022-11-03T14:26:42.116Z,99.79
2022-11-03T14:28:23.713Z,99.67
2022-11-03T14:29:59.149Z,99.98
2022-11-03T14:31:32.697Z,100.00
2022-11-03T14:33:06.108Z,100.00
2022-11-03T14:34:39.722Z,100.00
2022-11-03T14:36:13.094Z,100.00
2022-11-03T14:37:46.532Z,100.00
2022-11-03T14:39:19.689Z,100.00
2022-11-03T14:41:10.628Z,100.00
2022-11-03T14:42:45.276Z,100.00
2022-11-03T14:44:18.578Z,100.00
2022-11-03T14:45:51.877Z,100.00
2022-11-03T14:47:25.724Z,100.00
2022-11-03T14:48:58.992Z,100.00
2022-11-03T14:50:32.332Z,100.00
2022-11-03T14:52:07.447Z,100.00
2022-11-03T14:53:40.827Z,100.00
2022-11-03T14:55:13.967Z,100.00
2022-11-03T14:56:47.429Z,100.00
2022-11-03T14:58:22.073Z,100.00
2022-11-03T14:59:55.192Z,100.00
2022-11-03T15:01:28.509Z,100.00
2022-11-03T15:03:02.473Z,100.00
2022-11-03T15:04:35.704Z,100.00
2022-11-03T15:06:09.243Z,100.00
2022-11-03T15:07:42.360Z,100.00
2022-11-03T15:09:16.534Z,100.00
2022-11-03T15:10:49.762Z,100.00
2022-11-03T15:12:22.986Z,100.00
2022-11-03T15:13:57.549Z,100.00
2022-11-03T15:15:31.015Z,100.00
2022-11-03T15:17:04.417Z,100.00
2022-11-03T15:18:37.580Z,100.00
2022-11-03T15:20:11.939Z,100.00
2022-11-03T15:21:45.224Z,100.00
2022-11-03T15:26:50.624Z,100.00
2022-11-03T15:28:23.782Z,100.00
2022-11-03T15:29:58.385Z,100.00
2022-11-03T15:31:31.548Z,100.00
2022-11-03T15:33:05.052Z,100.00
2022-11-03T15:34:38.411Z,100.00
2022-11-03T15:36:12.244Z,100.00
2022-11-03T15:37:45.540Z,100.00
2022-11-03T15:39:18.943Z,100.00
2022-11-03T15:40:52.143Z,100.00
2022-11-03T15:42:25.391Z,100.00
2022-11-03T15:43:58.530Z,100.00
2022-11-03T15:45:33.426Z,100.00
2022-11-03T15:47:07.034Z,100.00
2022-11-03T15:48:40.508Z,100.00
2022-11-03T15:50:15.965Z,100.00
2022-11-03T15:51:49.309Z,100.00
2022-11-03T15:53:22.488Z,100.00
2022-11-03T15:54:55.629Z,100.00
2022-11-03T15:56:28.964Z,100.00
2022-11-03T15:58:02.504Z,100.00
2022-11-03T15:59:35.787Z,100.00
2022-11-03T16:01:10.483Z,100.00
2022-11-03T16:02:43.939Z,100.00
2022-11-03T16:04:17.479Z,100.00
2022-11-03T16:05:50.566Z,100.00
2022-11-03T16:07:24.134Z,100.00
2022-11-03T16:08:57.236Z,100.00
2022-11-03T16:10:30.494Z,100.00
2022-11-03T16:12:03.705Z,100.00
2022-11-03T16:13:36.869Z,100.00
2022-11-03T16:15:11.108Z,100.00
2022-11-03T16:16:46.093Z,100.00
2022-11-03T16:18:19.290Z,100.00
2022-11-03T16:19:52.476Z,100.00
2022-11-03T16:21:25.705Z,100.00
2022-11-03T16:22:59.085Z,100.00
2022-11-03T16:24:35.205Z,100.00
2022-11-03T16:26:09.155Z,100.00
2022-11-03T16:27:42.568Z,100.00
2022-11-03T16:29:16.116Z,100.00
2022-11-03T16:30:54.075Z,100.00
2022-11-03T16:32:29.221Z,100.00
2022-11-03T16:34:02.864Z,100.00
2022-11-03T16:35:36.308Z,100.00
2022-11-03T16:37:09.545Z,100.00
2022-11-03T16:38:42.733Z,100.00
2022-11-03T16:40:19.344Z,100.00
2022-11-03T16:41:54.861Z,100.00
2022-11-03T16:43:28.059Z,100.00
2022-11-03T16:45:01.277Z,100.00
2022-11-03T16:46:34.384Z,100.00
2022-11-03T16:48:09.432Z,100.00
2022-11-03T16:49:42.921Z,100.00
2022-11-03T16:51:16.175Z,100.00
2022-11-03T16:52:50.515Z,100.00
2022-11-03T16:54:23.762Z,100.00
2022-11-03T16:55:56.998Z,100.00
2022-11-03T16:57:30.156Z,100.00
2022-11-03T16:59:03.775Z,100.00
2022-11-03T17:00:37.337Z,100.00
2022-11-03T17:02:15.985Z,100.00
2022-11-03T17:03:52.596Z,100.00
2022-11-03T17:05:26.155Z,100.00
2022-11-03T17:06:59.849Z,100.00
2022-11-03T17:08:51.898Z,100.00
2022-11-03T17:10:27.775Z,100.00
2022-11-03T17:12:01.376Z,100.00
2022-11-03T17:13:34.820Z,100.00
2022-11-03T17:15:09.065Z,100.00
2022-11-03T17:16:45.752Z,100.00
2022-11-03T17:18:19.307Z,100.00
2022-11-03T17:19:54.054Z,100.00
2022-11-03T17:21:27.919Z,100.00
2022-11-03T17:23:01.235Z,100.00
2022-11-03T17:24:34.739Z,100.00
2022-11-03T17:26:07.969Z,100.00
2022-11-03T17:27:46.201Z,100.00
2022-11-03T17:29:22.565Z,100.00
2022-11-03T17:30:56.025Z,100.00
2022-11-03T17:32:31.783Z,100.00
2022-11-03T17:34:05.146Z,100.00
2022-11-03T17:35:42.103Z,100.00
2022-11-03T17:37:15.494Z,100.00
2022-11-03T17:38:48.737Z,100.00
2022-11-03T17:40:23.778Z,100.00
2022-11-03T17:42:06.190Z,100.00
2022-11-03T17:43:41.567Z,100.00
2022-11-03T17:45:15.951Z,100.00
2022-11-03T17:46:49.146Z,100.00
2022-11-03T17:48:24.044Z,100.00
2022-11-03T17:49:57.697Z,100.00
2022-11-03T17:51:33.763Z,100.00
2022-11-03T17:53:07.252Z,100.00
2022-11-03T17:54:40.850Z,100.00
2022-11-03T17:56:33.926Z,100.00
2022-11-03T17:58:07.312Z,100.00
2022-11-03T17:59:41.196Z,100.00
2022-11-03T18:01:20.440Z,100.00
2022-11-03T18:02:56.051Z,100.00
2022-11-03T18:04:29.310Z,100.00
2022-11-03T18:06:02.569Z,100.00
2022-11-03T18:07:37.414Z,100.00
2022-11-03T18:09:10.878Z,100.00
2022-11-03T18:10:46.623Z,100.00
2022-11-03T18:12:40.650Z,100.00
2022-11-03T18:14:13.251Z,100.00
2022-11-03T18:15:53.027Z,100.00
2022-11-03T18:17:26.274Z,100.00
2022-11-03T18:18:59.970Z,100.00
2022-11-03T18:20:33.477Z,100.00
2022-11-03T18:22:07.465Z,100.00
2022-11-03T18:23:42.125Z,100.00
2022-11-03T18:25:15.537Z,100.00
2022-11-03T18:26:49.061Z,100.00
2022-11-03T18:28:22.994Z,100.00
2022-11-03T18:29:56.171Z,100.00
2022-11-03T18:31:34.419Z,100.00
2022-11-03T18:33:10.467Z,100.00
2022-11-03T18:34:44.143Z,100.00
2022-11-03T18:36:19.030Z,100.00
2022-11-03T18:37:52.760Z,100.00
2022-11-03T18:39:29.925Z,100.00
2022-11-03T18:41:23.475Z,100.00
2022-11-03T18:42:56.852Z,100.00
2022-11-03T18:44:31.352Z,100.00
2022-11-03T18:46:04.670Z,100.00
2022-11-03T18:47:37.905Z,100.00
2022-11-03T18:49:11.501Z,100.00
2022-11-03T18:50:45.395Z,100.00
2022-11-03T18:52:19.575Z,100.00
2022-11-03T18:53:52.772Z,100.00
2022-11-03T18:55:27.455Z,100.00
2022-11-03T18:57:01.127Z,100.00
2022-11-03T18:58:35.004Z,100.00
2022-11-03T19:00:17.465Z,100.00
2022-11-03T19:01:50.864Z,100.00
2022-11-03T19:03:25.045Z,100.00
2022-11-03T19:04:58.274Z,100.00
2022-11-03T19:06:31.651Z,100.00
2022-11-03T19:08:05.526Z,100.00
2022-11-03T19:09:39.796Z,100.00
2022-11-03T19:11:15.627Z,100.00
2022-11-03T19:12:49.020Z,100.00
2022-11-03T19:14:24.859Z,100.00
2022-11-03T19:15:59.137Z,100.00
2022-11-03T19:17:36.186Z,100.00
2022-11-03T19:19:12.267Z,100.00
2022-11-03T19:20:45.439Z,100.00
2022-11-03T19:22:21.052Z,100.00
2022-11-03T19:23:58.330Z,100.00
2022-11-03T19:25:32.294Z,100.00
2022-11-03T19:27:11.281Z,100.00
2022-11-03T19:28:45.503Z,100.00
2022-11-03T19:30:21.305Z,100.00
2022-11-03T19:31:54.924Z,100.00
2022-11-03T19:33:31.970Z,100.00
2022-11-03T19:35:08.072Z,100.00
2022-11-03T19:36:41.701Z,100.00
2022-11-03T19:38:17.331Z,100.00
2022-11-03T19:39:50.583Z,100.00
2022-11-03T19:41:41.700Z,100.00
2022-11-03T19:43:16.281Z,100.00
2022-11-03T19:44:50.579Z,100.00
2022-11-03T19:46:23.883Z,100.00
2022-11-03T19:49:52.996Z,100.00
2022-11-03T19:51:26.225Z,100.00
2022-11-03T19:53:02.894Z,100.00
2022-11-03T19:54:36.260Z,100.00
2022-11-03T19:56:10.175Z,100.00
2022-11-03T19:57:43.924Z,100.00
2022-11-03T19:59:19.011Z,100.00
2022-11-03T20:00:53.465Z,100.00
2022-11-03T20:02:28.349Z,100.00
2022-11-03T20:04:01.732Z,100.00
2022-11-03T20:05:35.516Z,100.00
2022-11-03T20:07:09.160Z,100.00
2022-11-03T20:08:42.455Z,100.00
2022-11-03T20:10:18.481Z,100.00
2022-11-03T20:11:52.296Z,100.00
2022-11-03T20:13:28.839Z,100.00
2022-11-03T20:15:03.619Z,100.00
2022-11-03T20:16:36.912Z,100.00
2022-11-03T20:18:12.640Z,100.00
2022-11-03T20:19:45.838Z,100.00
2022-11-03T20:21:22.497Z,100.00
2022-11-03T20:22:58.514Z,100.00
2022-11-03T20:24:32.780Z,100.00
2022-11-03T20:26:07.945Z,100.00
2022-11-03T20:27:41.192Z,100.00
2022-11-03T20:29:15.885Z,100.00
2022-11-03T20:30:51.031Z,100.00
2022-11-03T20:32:24.258Z,100.00
2022-11-03T20:33:57.479Z,100.00